Ocean City, Maryland
Current Conditions -  °F | °C
As of 2:53 PM on Monday 24 Nov 2014 (Local Time) from KOXB Reporting Station
Light Rain Light Rain  
Wind Chill: 65°   Ceiling: Unl
Heat Index: 65°   Visibility: 10mi
Dew Point: 60°   Wind: 10mph
Humidity: 84%   Direction: 210°SSW
Pressure: 29.73"   Gusts: 25mph
Location:  38.34°N, 75.08°W
Report Text: KOXB 241953Z AUTO 21009G22KT 10SM -RA CLR 18/16 A2973 RMK AO2 PK WND 22028/1902 SLP066 P0000 T01830156 TSNO
Loading
Personal Weather Stations






























Interactive Weather Map New forecast layout! Learn more

10-Day Weather Forecast

Advertisements
Track Severe Weather on mobile